sensor_id;sensor_type;location;lat;lon;timestamp;pressure;altitude;pressure_sealevel;temperature;humidity
65557;BME280;52200;53.490;14.376;2023-11-22T00:01:04;102489.50;;;-1.07;76.45
65557;BME280;52200;53.490;14.376;2023-11-22T00:03:30;102492.78;;;-1.08;75.99
65557;BME280;52200;53.490;14.376;2023-11-22T00:05:57;102494.13;;;-1.15;76.77
65557;BME280;52200;53.490;14.376;2023-11-22T00:08:23;102497.69;;;-1.26;77.05
65557;BME280;52200;53.490;14.376;2023-11-22T00:10:49;102495.50;;;-1.37;76.84
65557;BME280;52200;53.490;14.376;2023-11-22T00:13:14;102513.09;;;-1.50;77.32
65557;BME280;52200;53.490;14.376;2023-11-22T00:15:39;102522.31;;;-1.96;78.65
65557;BME280;52200;53.490;14.376;2023-11-22T00:18:05;102528.84;;;-1.83;79.37
65557;BME280;52200;53.490;14.376;2023-11-22T00:20:30;102524.91;;;-1.63;78.83
65557;BME280;52200;53.490;14.376;2023-11-22T00:22:56;102528.47;;;-1.74;79.04
65557;BME280;52200;53.490;14.376;2023-11-22T00:25:22;102532.09;;;-1.84;79.48
65557;BME280;52200;53.490;14.376;2023-11-22T00:27:47;102541.88;;;-1.72;79.59
65557;BME280;52200;53.490;14.376;2023-11-22T00:30:13;102543.41;;;-1.74;79.96
65557;BME280;52200;53.490;14.376;2023-11-22T00:32:39;102532.47;;;-1.92;79.79
65557;BME280;52200;53.490;14.376;2023-11-22T00:35:06;102528.69;;;-2.01;79.54
65557;BME280;52200;53.490;14.376;2023-11-22T00:37:33;102549.06;;;-1.93;80.03
65557;BME280;52200;53.490;14.376;2023-11-22T00:40:02;102553.78;;;-1.98;80.14
65557;BME280;52200;53.490;14.376;2023-11-22T00:42:36;102559.53;;;-1.99;80.38
65557;BME280;52200;53.490;14.376;2023-11-22T00:45:03;102539.72;;;-2.12;79.96
65557;BME280;52200;53.490;14.376;2023-11-22T00:47:31;102552.84;;;-2.30;81.29
65557;BME280;52200;53.490;14.376;2023-11-22T00:49:56;102557.84;;;-2.30;81.50
65557;BME280;52200;53.490;14.376;2023-11-22T00:52:22;102565.44;;;-2.27;81.34
65557;BME280;52200;53.490;14.376;2023-11-22T00:54:47;102567.00;;;-2.14;81.57
65557;BME280;52200;53.490;14.376;2023-11-22T00:57:12;102575.59;;;-2.23;81.41
65557;BME280;52200;53.490;14.376;2023-11-22T00:59:38;102571.13;;;-2.29;81.64
65557;BME280;52200;53.490;14.376;2023-11-22T01:02:03;102581.41;;;-2.38;82.11
65557;BME280;52200;53.490;14.376;2023-11-22T01:04:30;102571.72;;;-2.48;81.90
65557;BME280;52200;53.490;14.376;2023-11-22T01:06:59;102577.53;;;-2.48;83.10
65557;BME280;52200;53.490;14.376;2023-11-22T01:09:24;102588.78;;;-2.54;83.73
65557;BME280;52200;53.490;14.376;2023-11-22T01:11:50;102596.78;;;-2.73;84.48
65557;BME280;52200;53.490;14.376;2023-11-22T01:14:15;102608.38;;;-3.02;84.48
65557;BME280;52200;53.490;14.376;2023-11-22T01:16:40;102604.44;;;-2.99;85.42
65557;BME280;52200;53.490;14.376;2023-11-22T01:19:06;102597.84;;;-2.98;85.71
65557;BME280;52200;53.490;14.376;2023-11-22T01:21:34;102595.63;;;-2.65;84.67
65557;BME280;52200;53.490;14.376;2023-11-22T01:23:59;102595.91;;;-2.46;83.50
65557;BME280;52200;53.490;14.376;2023-11-22T01:26:25;102594.63;;;-2.39;82.78
65557;BME280;52200;53.490;14.376;2023-11-22T01:28:50;102584.78;;;-2.52;82.59
65557;BME280;52200;53.490;14.376;2023-11-22T01:31:17;102595.91;;;-2.61;83.00
65557;BME280;52200;53.490;14.376;2023-11-22T01:33:46;102596.06;;;-2.57;83.41
65557;BME280;52200;53.490;14.376;2023-11-22T01:36:12;102608.47;;;-2.72;82.79
65557;BME280;52200;53.490;14.376;2023-11-22T01:38:37;102616.16;;;-2.54;83.00
65557;BME280;52200;53.490;14.376;2023-11-22T01:41:04;102596.78;;;-2.73;83.50
65557;BME280;52200;53.490;14.376;2023-11-22T01:43:30;102598.75;;;-2.54;83.13
65557;BME280;52200;53.490;14.376;2023-11-22T01:45:56;102594.28;;;-2.45;82.89
65557;BME280;52200;53.490;14.376;2023-11-22T01:48:22;102591.03;;;-2.44;82.54
65557;BME280;52200;53.490;14.376;2023-11-22T01:50:48;102592.25;;;-2.52;82.48
65557;BME280;52200;53.490;14.376;2023-11-22T01:53:14;102588.59;;;-2.57;81.69
65557;BME280;52200;53.490;14.376;2023-11-22T01:55:42;102602.09;;;-2.82;82.56
65557;BME280;52200;53.490;14.376;2023-11-22T01:58:07;102606.13;;;-2.84;82.47
65557;BME280;52200;53.490;14.376;2023-11-22T02:00:43;102609.84;;;-2.78;82.43
65557;BME280;52200;53.490;14.376;2023-11-22T02:03:10;102598.38;;;-3.17;83.71
65557;BME280;52200;53.490;14.376;2023-11-22T02:05:35;102605.78;;;-3.46;84.75
65557;BME280;52200;53.490;14.376;2023-11-22T02:08:01;102610.03;;;-3.16;83.88
65557;BME280;52200;53.490;14.376;2023-11-22T02:10:27;102613.38;;;-3.29;84.60
65557;BME280;52200;53.490;14.376;2023-11-22T02:12:53;102624.72;;;-2.93;83.80
65557;BME280;52200;53.490;14.376;2023-11-22T02:15:18;102614.38;;;-2.85;83.17
65557;BME280;52200;53.490;14.376;2023-11-22T02:17:44;102611.16;;;-2.98;82.90
65557;BME280;52200;53.490;14.376;2023-11-22T02:20:10;102579.97;;;-3.34;82.76
65557;BME280;52200;53.490;14.376;2023-11-22T02:22:46;102615.03;;;-3.43;84.01
65557;BME280;52200;53.490;14.376;2023-11-22T02:25:12;102610.94;;;-3.43;84.25
65557;BME280;52200;53.490;14.376;2023-11-22T02:27:38;102613.13;;;-3.47;83.91
65557;BME280;52200;53.490;14.376;2023-11-22T02:30:03;102614.50;;;-3.52;83.99
65557;BME280;52200;53.490;14.376;2023-11-22T02:32:31;102615.63;;;-3.34;84.51
65557;BME280;52200;53.490;14.376;2023-11-22T02:34:56;102618.47;;;-3.14;83.57
65557;BME280;52200;53.490;14.376;2023-11-22T02:37:22;102615.00;;;-3.16;83.03
65557;BME280;52200;53.490;14.376;2023-11-22T02:39:58;102621.88;;;-3.12;82.77
65557;BME280;52200;53.490;14.376;2023-11-22T02:42:25;102622.84;;;-3.10;82.49
65557;BME280;52200;53.490;14.376;2023-11-22T02:44:51;102631.44;;;-3.18;83.03
65557;BME280;52200;53.490;14.376;2023-11-22T02:47:16;102631.00;;;-3.26;83.14
65557;BME280;52200;53.490;14.376;2023-11-22T02:49:42;102639.13;;;-3.29;83.57
65557;BME280;52200;53.490;14.376;2023-11-22T02:52:07;102638.16;;;-3.31;83.59
65557;BME280;52200;53.490;14.376;2023-11-22T02:54:32;102643.13;;;-3.44;83.70
65557;BME280;52200;53.490;14.376;2023-11-22T02:56:59;102643.13;;;-3.44;83.82
65557;BME280;52200;53.490;14.376;2023-11-22T02:59:25;102654.31;;;-3.64;83.61
65557;BME280;52200;53.490;14.376;2023-11-22T03:01:51;102647.13;;;-3.86;84.42
65557;BME280;52200;53.490;14.376;2023-11-22T03:04:16;102656.22;;;-4.12;85.84
65557;BME280;52200;53.490;14.376;2023-11-22T03:06:42;102656.59;;;-4.19;86.64
65557;BME280;52200;53.490;14.376;2023-11-22T03:09:07;102657.06;;;-3.86;86.44
65557;BME280;52200;53.490;14.376;2023-11-22T03:11:33;102662.81;;;-3.74;85.92
65557;BME280;52200;53.490;14.376;2023-11-22T03:13:59;102676.00;;;-3.48;85.24
65557;BME280;52200;53.490;14.376;2023-11-22T03:16:24;102671.81;;;-4.01;85.07
65557;BME280;52200;53.490;14.376;2023-11-22T03:18:49;102678.69;;;-4.36;86.36
65557;BME280;52200;53.490;14.376;2023-11-22T03:21:16;102667.22;;;-4.09;86.53
65557;BME280;52200;53.490;14.376;2023-11-22T03:23:42;102673.09;;;-3.81;85.51
65557;BME280;52200;53.490;14.376;2023-11-22T03:26:08;102661.94;;;-3.88;85.18
65557;BME280;52200;53.490;14.376;2023-11-22T03:28:35;102671.00;;;-3.75;84.79
65557;BME280;52200;53.490;14.376;2023-11-22T03:31:00;102672.06;;;-3.72;84.26
65557;BME280;52200;53.490;14.376;2023-11-22T03:33:28;102676.91;;;-3.86;84.21
65557;BME280;52200;53.490;14.376;2023-11-22T03:35:53;102686.63;;;-4.03;84.83
65557;BME280;52200;53.490;14.376;2023-11-22T03:38:18;102685.09;;;-4.01;84.72
65557;BME280;52200;53.490;14.376;2023-11-22T03:40:44;102687.25;;;-3.80;84.20
65557;BME280;52200;53.490;14.376;2023-11-22T03:43:11;102667.38;;;-3.80;83.51
65557;BME280;52200;53.490;14.376;2023-11-22T03:45:36;102676.06;;;-3.87;83.46
65557;BME280;52200;53.490;14.376;2023-11-22T03:48:02;102689.25;;;-3.88;83.41
65557;BME280;52200;53.490;14.376;2023-11-22T03:50:27;102691.19;;;-4.09;84.21
65557;BME280;52200;53.490;14.376;2023-11-22T03:52:53;102679.00;;;-3.93;83.56
65557;BME280;52200;53.490;14.376;2023-11-22T03:55:18;102679.34;;;-4.00;83.73
65557;BME280;52200;53.490;14.376;2023-11-22T03:57:44;102690.22;;;-4.11;83.15
65557;BME280;52200;53.490;14.376;2023-11-22T04:00:09;102686.69;;;-4.40;83.94
65557;BME280;52200;53.490;14.376;2023-11-22T04:02:35;102684.91;;;-4.29;85.08
65557;BME280;52200;53.490;14.376;2023-11-22T04:05:00;102691.53;;;-4.16;84.41
65557;BME280;52200;53.490;14.376;2023-11-22T04:07:26;102707.53;;;-4.25;84.62
65557;BME280;52200;53.490;14.376;2023-11-22T04:09:51;102708.56;;;-4.09;83.46
65557;BME280;52200;53.490;14.376;2023-11-22T04:12:17;102710.63;;;-4.41;83.42
65557;BME280;52200;53.490;14.376;2023-11-22T04:14:42;102718.22;;;-4.26;83.48
65557;BME280;52200;53.490;14.376;2023-11-22T04:17:08;102711.69;;;-4.37;83.12
65557;BME280;52200;53.490;14.376;2023-11-22T04:19:33;102712.31;;;-4.28;83.69
65557;BME280;52200;53.490;14.376;2023-11-22T04:21:58;102706.53;;;-4.40;83.72
65557;BME280;52200;53.490;14.376;2023-11-22T04:24:24;102711.41;;;-4.54;83.78
65557;BME280;52200;53.490;14.376;2023-11-22T04:26:49;102711.50;;;-4.52;83.51
65557;BME280;52200;53.490;14.376;2023-11-22T04:29:15;102727.94;;;-4.54;83.89
65557;BME280;52200;53.490;14.376;2023-11-22T04:31:41;102726.38;;;-4.40;83.40
65557;BME280;52200;53.490;14.376;2023-11-22T04:34:07;102709.50;;;-4.32;82.93
65557;BME280;52200;53.490;14.376;2023-11-22T04:36:32;102709.19;;;-4.74;83.62
65557;BME280;52200;53.490;14.376;2023-11-22T04:38:57;102716.34;;;-4.91;84.67
65557;BME280;52200;53.490;14.376;2023-11-22T04:41:23;102720.66;;;-5.24;85.06
65557;BME280;52200;53.490;14.376;2023-11-22T04:43:50;102725.41;;;-5.03;85.42
65557;BME280;52200;53.490;14.376;2023-11-22T04:46:15;102740.72;;;-4.85;84.83
65557;BME280;52200;53.490;14.376;2023-11-22T04:48:41;102740.16;;;-4.93;84.40
65557;BME280;52200;53.490;14.376;2023-11-22T04:51:10;102748.91;;;-5.10;85.08
65557;BME280;52200;53.490;14.376;2023-11-22T04:53:35;102766.22;;;-4.98;85.59
65557;BME280;52200;53.490;14.376;2023-11-22T04:56:01;102760.72;;;-4.82;85.20
65557;BME280;52200;53.490;14.376;2023-11-22T04:58:31;102762.78;;;-4.88;85.11
65557;BME280;52200;53.490;14.376;2023-11-22T05:00:57;102768.59;;;-4.88;84.93
65557;BME280;52200;53.490;14.376;2023-11-22T05:03:22;102775.38;;;-5.21;86.09
65557;BME280;52200;53.490;14.376;2023-11-22T05:05:49;102775.84;;;-4.79;86.36
65557;BME280;52200;53.490;14.376;2023-11-22T05:08:14;102774.50;;;-4.62;84.39
65557;BME280;52200;53.490;14.376;2023-11-22T05:10:39;102778.72;;;-4.61;84.18
65557;BME280;52200;53.490;14.376;2023-11-22T05:13:05;102780.53;;;-4.58;83.86
65557;BME280;52200;53.490;14.376;2023-11-22T05:15:31;102773.00;;;-4.72;84.26
65557;BME280;52200;53.490;14.376;2023-11-22T05:17:56;102782.16;;;-4.59;83.16
65557;BME280;52200;53.490;14.376;2023-11-22T05:20:22;102775.91;;;-4.65;83.55
65557;BME280;52200;53.490;14.376;2023-11-22T05:22:47;102773.22;;;-4.68;83.09
65557;BME280;52200;53.490;14.376;2023-11-22T05:25:12;102769.13;;;-4.68;83.19
65557;BME280;52200;53.490;14.376;2023-11-22T05:27:38;102775.50;;;-4.95;83.53
65557;BME280;52200;53.490;14.376;2023-11-22T05:30:03;102774.97;;;-4.79;83.79
65557;BME280;52200;53.490;14.376;2023-11-22T05:32:31;102782.81;;;-4.73;83.44
65557;BME280;52200;53.490;14.376;2023-11-22T05:34:56;102781.22;;;-4.73;82.42
65557;BME280;52200;53.490;14.376;2023-11-22T05:37:22;102776.69;;;-4.90;82.92
65557;BME280;52200;53.490;14.376;2023-11-22T05:39:47;102793.81;;;-5.05;84.17
65557;BME280;52200;53.490;14.376;2023-11-22T05:42:13;102808.47;;;-4.84;83.75
65557;BME280;52200;53.490;14.376;2023-11-22T05:44:38;102822.16;;;-4.78;82.99
65557;BME280;52200;53.490;14.376;2023-11-22T05:47:04;102810.53;;;-4.79;82.55
65557;BME280;52200;53.490;14.376;2023-11-22T05:49:29;102818.72;;;-4.80;82.44
65557;BME280;52200;53.490;14.376;2023-11-22T05:51:55;102821.06;;;-5.05;82.67
65557;BME280;52200;53.490;14.376;2023-11-22T05:54:20;102823.56;;;-4.93;82.51
65557;BME280;52200;53.490;14.376;2023-11-22T05:56:46;102812.66;;;-4.95;82.89
65557;BME280;52200;53.490;14.376;2023-11-22T05:59:11;102814.50;;;-5.16;83.34
65557;BME280;52200;53.490;14.376;2023-11-22T06:01:36;102805.78;;;-4.99;83.49
65557;BME280;52200;53.490;14.376;2023-11-22T06:04:02;102813.19;;;-5.11;82.67
65557;BME280;52200;53.490;14.376;2023-11-22T06:06:28;102807.50;;;-5.10;83.64
65557;BME280;52200;53.490;14.376;2023-11-22T06:08:53;102798.63;;;-5.30;83.35
65557;BME280;52200;53.490;14.376;2023-11-22T06:11:18;102790.66;;;-5.38;83.80
65557;BME280;52200;53.490;14.376;2023-11-22T06:13:44;102804.97;;;-5.34;84.09
65557;BME280;52200;53.490;14.376;2023-11-22T06:16:12;102805.56;;;-5.14;83.99
65557;BME280;52200;53.490;14.376;2023-11-22T06:18:37;102800.81;;;-5.11;83.46
65557;BME280;52200;53.490;14.376;2023-11-22T06:21:08;102802.91;;;-5.40;83.96
65557;BME280;52200;53.490;14.376;2023-11-22T06:23:34;102806.84;;;-5.20;84.28
65557;BME280;52200;53.490;14.376;2023-11-22T06:25:59;102816.75;;;-5.08;83.52
65557;BME280;52200;53.490;14.376;2023-11-22T06:28:25;102808.81;;;-5.04;83.32
65557;BME280;52200;53.490;14.376;2023-11-22T06:30:50;102803.72;;;-5.05;83.15
65557;BME280;52200;53.490;14.376;2023-11-22T06:33:16;102817.94;;;-5.03;83.09
65557;BME280;52200;53.490;14.376;2023-11-22T06:35:41;102837.03;;;-5.13;83.71
65557;BME280;52200;53.490;14.376;2023-11-22T06:38:08;102842.84;;;-5.01;83.46
65557;BME280;52200;53.490;14.376;2023-11-22T06:40:33;102833.78;;;-5.00;83.08
65557;BME280;52200;53.490;14.376;2023-11-22T06:42:59;102827.41;;;-5.21;83.45
65557;BME280;52200;53.490;14.376;2023-11-22T06:45:24;102825.50;;;-5.01;83.77
65557;BME280;52200;53.490;14.376;2023-11-22T06:47:49;102841.78;;;-4.93;83.13
65557;BME280;52200;53.490;14.376;2023-11-22T06:50:15;102841.44;;;-5.09;83.13
65557;BME280;52200;53.490;14.376;2023-11-22T06:52:41;102848.63;;;-5.12;84.25
65557;BME280;52200;53.490;14.376;2023-11-22T06:55:08;102843.38;;;-5.05;83.58
65557;BME280;52200;53.490;14.376;2023-11-22T06:57:34;102840.66;;;-5.20;83.63
65557;BME280;52200;53.490;14.376;2023-11-22T07:00:00;102845.34;;;-5.35;84.41
65557;BME280;52200;53.490;14.376;2023-11-22T07:02:30;102841.28;;;-5.23;84.01
65557;BME280;52200;53.490;14.376;2023-11-22T07:04:55;102846.56;;;-5.30;83.85
65557;BME280;52200;53.490;14.376;2023-11-22T07:07:21;102853.91;;;-5.54;84.59
65557;BME280;52200;53.490;14.376;2023-11-22T07:09:46;102852.75;;;-5.13;84.88
65557;BME280;52200;53.490;14.376;2023-11-22T07:12:12;102858.81;;;-4.97;84.53
65557;BME280;52200;53.490;14.376;2023-11-22T07:14:38;102856.56;;;-4.82;83.29
65557;BME280;52200;53.490;14.376;2023-11-22T07:17:03;102865.53;;;-4.73;83.08
65557;BME280;52200;53.490;14.376;2023-11-22T07:19:32;102882.66;;;-4.64;83.22
65557;BME280;52200;53.490;14.376;2023-11-22T07:21:57;102869.31;;;-4.54;83.07
65557;BME280;52200;53.490;14.376;2023-11-22T07:24:23;102857.94;;;-4.50;83.69
65557;BME280;52200;53.490;14.376;2023-11-22T07:26:49;102866.91;;;-4.53;83.24
65557;BME280;52200;53.490;14.376;2023-11-22T07:29:14;102852.78;;;-4.89;83.76
65557;BME280;52200;53.490;14.376;2023-11-22T07:31:40;102851.25;;;-4.75;84.86
65557;BME280;52200;53.490;14.376;2023-11-22T07:34:07;102858.69;;;-4.40;83.84
65557;BME280;52200;53.490;14.376;2023-11-22T07:36:36;102860.53;;;-4.61;84.01
65557;BME280;52200;53.490;14.376;2023-11-22T07:39:03;102869.38;;;-4.41;84.37
65557;BME280;52200;53.490;14.376;2023-11-22T07:41:30;102864.22;;;-4.56;85.04
65557;BME280;52200;53.490;14.376;2023-11-22T07:43:56;102847.50;;;-4.70;85.42
65557;BME280;52200;53.490;14.376;2023-11-22T07:46:22;102854.28;;;-4.56;85.46
65557;BME280;52200;53.490;14.376;2023-11-22T07:48:47;102846.94;;;-4.42;85.39
65557;BME280;52200;53.490;14.376;2023-11-22T07:51:14;102847.09;;;-4.03;84.77
65557;BME280;52200;53.490;14.376;2023-11-22T07:53:42;102846.91;;;-3.81;84.42
65557;BME280;52200;53.490;14.376;2023-11-22T07:56:09;102838.31;;;-3.86;83.82
65557;BME280;52200;53.490;14.376;2023-11-22T07:58:34;102857.06;;;-3.78;84.55
65557;BME280;52200;53.490;14.376;2023-11-22T08:01:01;102864.16;;;-4.08;84.92
65557;BME280;52200;53.490;14.376;2023-11-22T08:03:29;102866.56;;;-4.22;86.01
65557;BME280;52200;53.490;14.376;2023-11-22T08:05:54;102860.28;;;-4.16;86.81
65557;BME280;52200;53.490;14.376;2023-11-22T08:08:24;102865.63;;;-3.86;86.74
65557;BME280;52200;53.490;14.376;2023-11-22T08:10:50;102875.56;;;-3.36;86.04
65557;BME280;52200;53.490;14.376;2023-11-22T08:13:18;102865.72;;;-3.09;85.13
65557;BME280;52200;53.490;14.376;2023-11-22T08:15:45;102879.72;;;-2.84;84.13
65557;BME280;52200;53.490;14.376;2023-11-22T08:18:12;102874.75;;;-2.71;84.10
65557;BME280;52200;53.490;14.376;2023-11-22T08:20:37;102877.88;;;-2.60;83.26
65557;BME280;52200;53.490;14.376;2023-11-22T08:23:03;102893.31;;;-2.66;83.52
65557;BME280;52200;53.490;14.376;2023-11-22T08:25:31;102897.34;;;-2.54;83.49
65557;BME280;52200;53.490;14.376;2023-11-22T08:27:57;102900.19;;;-2.62;83.93
65557;BME280;52200;53.490;14.376;2023-11-22T08:30:22;102897.50;;;-2.51;83.08
65557;BME280;52200;53.490;14.376;2023-11-22T08:32:48;102880.97;;;-2.51;82.97
65557;BME280;52200;53.490;14.376;2023-11-22T08:35:19;102882.09;;;-2.59;83.21
65557;BME280;52200;53.490;14.376;2023-11-22T08:37:45;102886.16;;;-2.61;83.21
65557;BME280;52200;53.490;14.376;2023-11-22T08:40:14;102895.13;;;-2.63;83.90
65557;BME280;52200;53.490;14.376;2023-11-22T08:42:39;102872.44;;;-2.54;83.63
65557;BME280;52200;53.490;14.376;2023-11-22T08:45:06;102879.25;;;-2.52;83.90
65557;BME280;52200;53.490;14.376;2023-11-22T08:47:34;102861.72;;;-2.67;84.71
65557;BME280;52200;53.490;14.376;2023-11-22T08:50:00;102849.28;;;-2.80;84.82
65557;BME280;52200;53.490;14.376;2023-11-22T08:52:25;102877.59;;;-2.51;85.28
65557;BME280;52200;53.490;14.376;2023-11-22T08:54:51;102853.69;;;-2.63;84.61
65557;BME280;52200;53.490;14.376;2023-11-22T08:57:17;102878.66;;;-2.48;85.52
65557;BME280;52200;53.490;14.376;2023-11-22T08:59:43;102881.22;;;-2.19;85.01
65557;BME280;52200;53.490;14.376;2023-11-22T09:02:08;102873.50;;;-2.24;84.61
65557;BME280;52200;53.490;14.376;2023-11-22T09:04:35;102881.44;;;-2.43;85.03
65557;BME280;52200;53.490;14.376;2023-11-22T09:07:00;102866.28;;;-2.33;85.75
65557;BME280;52200;53.490;14.376;2023-11-22T09:09:26;102855.78;;;-2.29;85.54
65557;BME280;52200;53.490;14.376;2023-11-22T09:11:59;102843.50;;;-1.84;85.30
65557;BME280;52200;53.490;14.376;2023-11-22T09:14:25;102835.13;;;-1.99;85.61
65557;BME280;52200;53.490;14.376;2023-11-22T09:16:51;102826.03;;;-2.12;85.21
65557;BME280;52200;53.490;14.376;2023-11-22T09:19:24;102825.91;;;-1.72;85.31
65557;BME280;52200;53.490;14.376;2023-11-22T09:21:50;102817.88;;;-1.38;84.29
65557;BME280;52200;53.490;14.376;2023-11-22T09:24:16;102822.16;;;-1.20;84.06
65557;BME280;52200;53.490;14.376;2023-11-22T09:26:41;102807.72;;;-1.11;83.17
65557;BME280;52200;53.490;14.376;2023-11-22T09:29:07;102809.44;;;-1.10;83.47
65557;BME280;52200;53.490;14.376;2023-11-22T09:31:34;102806.34;;;-1.06;84.19
65557;BME280;52200;53.490;14.376;2023-11-22T09:34:00;102815.03;;;-0.84;83.23
65557;BME280;52200;53.490;14.376;2023-11-22T09:36:26;102817.47;;;-0.69;82.91
65557;BME280;52200;53.490;14.376;2023-11-22T09:38:53;102821.09;;;-0.47;82.44
65557;BME280;52200;53.490;14.376;2023-11-22T09:41:18;102826.50;;;-0.40;82.38
65557;BME280;52200;53.490;14.376;2023-11-22T09:43:44;102825.06;;;-0.20;82.50
65557;BME280;52200;53.490;14.376;2023-11-22T09:46:15;102831.22;;;0.04;82.08
65557;BME280;52200;53.490;14.376;2023-11-22T09:48:42;102836.38;;;0.23;81.57
65557;BME280;52200;53.490;14.376;2023-11-22T09:53:41;102858.19;;;0.42;81.51
65557;BME280;52200;53.490;14.376;2023-11-22T09:56:11;102849.94;;;0.61;80.79
65557;BME280;52200;53.490;14.376;2023-11-22T09:58:41;102845.94;;;0.65;80.07
65557;BME280;52200;53.490;14.376;2023-11-22T10:01:12;102859.88;;;0.78;79.59
65557;BME280;52200;53.490;14.376;2023-11-22T10:03:41;102865.66;;;0.93;79.04
65557;BME280;52200;53.490;14.376;2023-11-22T10:06:07;102871.97;;;1.03;78.49
65557;BME280;52200;53.490;14.376;2023-11-22T10:08:33;102865.00;;;0.79;78.75
65557;BME280;52200;53.490;14.376;2023-11-22T10:10:59;102877.31;;;1.11;78.96
65557;BME280;52200;53.490;14.376;2023-11-22T10:13:25;102880.56;;;1.26;77.80
65557;BME280;52200;53.490;14.376;2023-11-22T10:15:51;102873.53;;;1.37;77.29
65557;BME280;52200;53.490;14.376;2023-11-22T10:18:21;102866.84;;;1.56;76.27
65557;BME280;52200;53.490;14.376;2023-11-22T10:20:50;102866.38;;;1.45;75.27
65557;BME280;52200;53.490;14.376;2023-11-22T10:23:17;102861.22;;;1.42;75.62
65557;BME280;52200;53.490;14.376;2023-11-22T10:25:51;102867.13;;;1.42;75.26
65557;BME280;52200;53.490;14.376;2023-11-22T10:28:21;102856.53;;;1.30;73.45
65557;BME280;52200;53.490;14.376;2023-11-22T10:30:50;102852.09;;;1.62;72.93
65557;BME280;52200;53.490;14.376;2023-11-22T10:33:16;102850.59;;;1.46;71.71
65557;BME280;52200;53.490;14.376;2023-11-22T10:35:47;102853.66;;;1.78;71.32
65557;BME280;52200;53.490;14.376;2023-11-22T10:38:19;102854.66;;;1.82;70.51
65557;BME280;52200;53.490;14.376;2023-11-22T10:40:46;102850.53;;;2.02;71.28
65557;BME280;52200;53.490;14.376;2023-11-22T10:43:13;102857.38;;;1.86;70.43
65557;BME280;52200;53.490;14.376;2023-11-22T10:45:40;102864.09;;;1.32;69.51
65557;BME280;52200;53.490;14.376;2023-11-22T10:48:07;102866.44;;;1.28;70.59
65557;BME280;52200;53.490;14.376;2023-11-22T10:50:34;102859.94;;;1.32;70.99
65557;BME280;52200;53.490;14.376;2023-11-22T10:53:01;102854.44;;;1.39;72.11
65557;BME280;52200;53.490;14.376;2023-11-22T10:55:32;102865.16;;;1.37;70.67
65557;BME280;52200;53.490;14.376;2023-11-22T10:58:03;102858.44;;;1.54;71.37
65557;BME280;52200;53.490;14.376;2023-11-22T11:00:31;102845.06;;;1.73;71.01
65557;BME280;52200;53.490;14.376;2023-11-22T11:03:24;102840.22;;;1.96;71.87
65557;BME280;52200;53.490;14.376;2023-11-22T11:05:58;102821.34;;;2.23;71.27
65557;BME280;52200;53.490;14.376;2023-11-22T11:08:25;102804.56;;;2.22;71.25
65557;BME280;52200;53.490;14.376;2023-11-22T11:10:53;102784.75;;;2.29;70.81
65557;BME280;52200;53.490;14.376;2023-11-22T11:13:19;102789.13;;;2.33;71.72
65557;BME280;52200;53.490;14.376;2023-11-22T11:15:45;102767.91;;;2.05;71.36
65557;BME280;52200;53.490;14.376;2023-11-22T11:18:14;102775.09;;;2.17;71.55
65557;BME280;52200;53.490;14.376;2023-11-22T11:23:19;102760.22;;;2.21;70.52
65557;BME280;52200;53.490;14.376;2023-11-22T11:25:47;102769.22;;;2.37;70.93
65557;BME280;52200;53.490;14.376;2023-11-22T11:28:13;102772.81;;;2.02;71.60
65557;BME280;52200;53.490;14.376;2023-11-22T11:30:49;102771.22;;;2.04;71.39
65557;BME280;52200;53.490;14.376;2023-11-22T11:35:47;102761.47;;;2.52;71.46
65557;BME280;52200;53.490;14.376;2023-11-22T11:38:19;102762.44;;;2.35;71.37
65557;BME280;52200;53.490;14.376;2023-11-22T11:40:46;102756.84;;;2.40;70.29
65557;BME280;52200;53.490;14.376;2023-11-22T11:43:12;102756.28;;;2.27;70.79
65557;BME280;52200;53.490;14.376;2023-11-22T11:45:40;102758.53;;;2.20;71.66
65557;BME280;52200;53.490;14.376;2023-11-22T11:48:12;102752.25;;;1.89;72.63
65557;BME280;52200;53.490;14.376;2023-11-22T11:50:38;102741.75;;;1.98;72.77
65557;BME280;52200;53.490;14.376;2023-11-22T11:53:03;102715.06;;;2.00;73.27
65557;BME280;52200;53.490;14.376;2023-11-22T11:55:30;102702.38;;;2.17;72.77
65557;BME280;52200;53.490;14.376;2023-11-22T11:57:55;102705.41;;;1.88;73.53
65557;BME280;52200;53.490;14.376;2023-11-22T12:00:22;102690.97;;;1.83;73.22
65557;BME280;52200;53.490;14.376;2023-11-22T12:02:49;102674.69;;;1.73;73.29
65557;BME280;52200;53.490;14.376;2023-11-22T12:05:14;102684.84;;;1.76;72.22
65557;BME280;52200;53.490;14.376;2023-11-22T12:07:40;102692.75;;;1.85;72.01
65557;BME280;52200;53.490;14.376;2023-11-22T12:10:06;102688.09;;;1.73;70.67
65557;BME280;52200;53.490;14.376;2023-11-22T12:12:34;102689.25;;;1.82;69.76
65557;BME280;52200;53.490;14.376;2023-11-22T12:14:59;102692.47;;;1.99;69.46
65557;BME280;52200;53.490;14.376;2023-11-22T12:17:26;102684.59;;;1.89;68.93
65557;BME280;52200;53.490;14.376;2023-11-22T12:19:52;102679.09;;;1.98;69.65
65557;BME280;52200;53.490;14.376;2023-11-22T12:22:18;102669.59;;;2.12;70.85
65557;BME280;52200;53.490;14.376;2023-11-22T12:24:45;102658.03;;;2.37;69.05
65557;BME280;52200;53.490;14.376;2023-11-22T12:27:10;102688.19;;;2.61;68.72
65557;BME280;52200;53.490;14.376;2023-11-22T12:29:36;102705.06;;;2.64;68.99
65557;BME280;52200;53.490;14.376;2023-11-22T12:32:02;102701.50;;;2.58;67.92
65557;BME280;52200;53.490;14.376;2023-11-22T12:34:27;102703.38;;;2.41;68.00
65557;BME280;52200;53.490;14.376;2023-11-22T12:36:55;102700.91;;;2.43;68.46
65557;BME280;52200;53.490;14.376;2023-11-22T12:39:20;102699.81;;;2.57;68.27
65557;BME280;52200;53.490;14.376;2023-11-22T12:41:50;102718.97;;;2.78;68.77
65557;BME280;52200;53.490;14.376;2023-11-22T12:44:17;102720.63;;;2.78;68.67
65557;BME280;52200;53.490;14.376;2023-11-22T12:46:49;102735.34;;;2.47;68.28